Weather at Davies Airport

Public forecast

Using degrees Fahrenheit for public forecast. Weather courtesy of forecast.io.

Closest aviation weather report (METAR) to Davies Airport

Closest report is Sheboygan County Memorial Airport, 10.8 nm (20.0 km) NNW. Retrieved 2022/01/22 19:53 UTC (53 minutes ago):

KSBM 221953Z AUTO 27020G31KT 10SM FEW033 M03/M11 A3000 RMK AO2 PK WND 28032/1933 SLP173 T10331106

Closest aviation forecast (TAF) to Davies Airport

Closest forecast is Sheboygan County Memorial Airport, 10.8 nm (20.0 km) NNW. Retrieved 2022/01/22 18:22 UTC (2 hours ago):

TAF KSBM 221720Z 2218/2318 28018G27KT P6SM -SN SCT025 BKN040 TEMPO 2218/2221 BKN030 FM222100 28012G23KT P6SM SCT090 FM230400 32008KT P6SM VCSH OVC045 FM230600 33008KT 3SM -SN OVC035 FM231000 34011KT P6SM FEW035